sensor_id;sensor_type;location;lat;lon;timestamp;temperature;humidity
3940;DHT22;1984;48.312;9.244;2024-01-30T00:00:40;0.90;99.90
3940;DHT22;1984;48.312;9.244;2024-01-30T00:03:06;0.90;99.90
3940;DHT22;1984;48.312;9.244;2024-01-30T00:05:32;0.90;99.90
3940;DHT22;1984;48.312;9.244;2024-01-30T00:07:57;0.80;99.90
3940;DHT22;1984;48.312;9.244;2024-01-30T00:10:23;0.80;99.90
3940;DHT22;1984;48.312;9.244;2024-01-30T00:12:48;0.80;99.90
3940;DHT22;1984;48.312;9.244;2024-01-30T00:15:14;0.80;99.90
3940;DHT22;1984;48.312;9.244;2024-01-30T00:17:40;0.80;99.90
3940;DHT22;1984;48.312;9.244;2024-01-30T00:20:06;0.70;99.90
3940;DHT22;1984;48.312;9.244;2024-01-30T00:22:32;0.70;99.90
3940;DHT22;1984;48.312;9.244;2024-01-30T00:24:58;0.70;99.90
3940;DHT22;1984;48.312;9.244;2024-01-30T00:27:23;0.70;99.90
3940;DHT22;1984;48.312;9.244;2024-01-30T00:29:49;0.70;99.90
3940;DHT22;1984;48.312;9.244;2024-01-30T00:32:14;0.70;99.90
3940;DHT22;1984;48.312;9.244;2024-01-30T00:34:41;0.70;99.90
3940;DHT22;1984;48.312;9.244;2024-01-30T00:37:07;0.70;99.90
3940;DHT22;1984;48.312;9.244;2024-01-30T00:39:32;0.80;99.90
3940;DHT22;1984;48.312;9.244;2024-01-30T00:41:58;0.80;99.90
3940;DHT22;1984;48.312;9.244;2024-01-30T00:44:23;0.80;99.90
3940;DHT22;1984;48.312;9.244;2024-01-30T00:46:49;0.80;99.90
3940;DHT22;1984;48.312;9.244;2024-01-30T00:49:15;0.70;99.90
3940;DHT22;1984;48.312;9.244;2024-01-30T00:51:40;0.70;99.90
3940;DHT22;1984;48.312;9.244;2024-01-30T00:54:06;0.70;99.90
3940;DHT22;1984;48.312;9.244;2024-01-30T00:56:31;0.70;99.90
3940;DHT22;1984;48.312;9.244;2024-01-30T00:58:57;0.60;99.90
3940;DHT22;1984;48.312;9.244;2024-01-30T01:01:23;0.60;99.90
3940;DHT22;1984;48.312;9.244;2024-01-30T01:03:48;0.70;99.90
3940;DHT22;1984;48.312;9.244;2024-01-30T01:06:14;0.70;99.90
3940;DHT22;1984;48.312;9.244;2024-01-30T01:08:40;0.70;99.90
3940;DHT22;1984;48.312;9.244;2024-01-30T01:11:05;0.60;99.90
3940;DHT22;1984;48.312;9.244;2024-01-30T01:13:31;0.60;99.90
3940;DHT22;1984;48.312;9.244;2024-01-30T01:15:56;0.60;99.90
3940;DHT22;1984;48.312;9.244;2024-01-30T01:18:22;0.60;99.90
3940;DHT22;1984;48.312;9.244;2024-01-30T01:20:47;0.60;99.90
3940;DHT22;1984;48.312;9.244;2024-01-30T01:23:13;0.70;99.90
3940;DHT22;1984;48.312;9.244;2024-01-30T01:25:38;0.60;99.90
3940;DHT22;1984;48.312;9.244;2024-01-30T01:28:04;0.60;99.90
3940;DHT22;1984;48.312;9.244;2024-01-30T01:30:30;0.60;99.90
3940;DHT22;1984;48.312;9.244;2024-01-30T01:32:55;0.50;99.90
3940;DHT22;1984;48.312;9.244;2024-01-30T01:35:23;0.50;99.90
3940;DHT22;1984;48.312;9.244;2024-01-30T01:37:50;0.40;99.90
3940;DHT22;1984;48.312;9.244;2024-01-30T01:40:22;0.40;99.90
3940;DHT22;1984;48.312;9.244;2024-01-30T01:42:47;0.40;99.90
3940;DHT22;1984;48.312;9.244;2024-01-30T01:45:13;0.30;99.90
3940;DHT22;1984;48.312;9.244;2024-01-30T01:47:39;0.30;99.90
3940;DHT22;1984;48.312;9.244;2024-01-30T01:50:05;0.30;99.90
3940;DHT22;1984;48.312;9.244;2024-01-30T01:52:31;0.30;99.90
3940;DHT22;1984;48.312;9.244;2024-01-30T01:54:56;0.30;99.90
3940;DHT22;1984;48.312;9.244;2024-01-30T01:57:22;0.30;99.90
3940;DHT22;1984;48.312;9.244;2024-01-30T01:59:47;0.30;99.90
3940;DHT22;1984;48.312;9.244;2024-01-30T02:02:14;0.30;99.90
3940;DHT22;1984;48.312;9.244;2024-01-30T02:04:42;0.40;99.90
3940;DHT22;1984;48.312;9.244;2024-01-30T02:07:09;0.40;99.90
3940;DHT22;1984;48.312;9.244;2024-01-30T02:09:35;0.40;99.90
3940;DHT22;1984;48.312;9.244;2024-01-30T02:12:00;0.30;99.90
3940;DHT22;1984;48.312;9.244;2024-01-30T02:14:26;0.30;99.90
3940;DHT22;1984;48.312;9.244;2024-01-30T02:16:51;0.20;99.90
3940;DHT22;1984;48.312;9.244;2024-01-30T02:19:17;0.10;99.90
3940;DHT22;1984;48.312;9.244;2024-01-30T02:21:43;0.10;99.90
3940;DHT22;1984;48.312;9.244;2024-01-30T02:24:09;0.10;99.90
3940;DHT22;1984;48.312;9.244;2024-01-30T02:26:34;0.00;99.90
3940;DHT22;1984;48.312;9.244;2024-01-30T02:29:00;0.00;99.90
3940;DHT22;1984;48.312;9.244;2024-01-30T02:31:26;0.00;99.90
3940;DHT22;1984;48.312;9.244;2024-01-30T02:33:51;0.00;99.90
3940;DHT22;1984;48.312;9.244;2024-01-30T02:36:17;0.00;99.90
3940;DHT22;1984;48.312;9.244;2024-01-30T02:38:42;0.00;99.90
3940;DHT22;1984;48.312;9.244;2024-01-30T02:41:08;0.00;99.90
3940;DHT22;1984;48.312;9.244;2024-01-30T02:43:33;0.00;99.90
3940;DHT22;1984;48.312;9.244;2024-01-30T02:45:59;0.00;99.90
3940;DHT22;1984;48.312;9.244;2024-01-30T02:48:26;0.00;99.90
3940;DHT22;1984;48.312;9.244;2024-01-30T02:50:52;0.00;99.90
3940;DHT22;1984;48.312;9.244;2024-01-30T02:53:17;0.00;99.90
3940;DHT22;1984;48.312;9.244;2024-01-30T02:55:43;0.00;99.90
3940;DHT22;1984;48.312;9.244;2024-01-30T02:58:08;0.00;99.90
3940;DHT22;1984;48.312;9.244;2024-01-30T03:00:34;0.00;99.90
3940;DHT22;1984;48.312;9.244;2024-01-30T03:03:00;0.00;99.90
3940;DHT22;1984;48.312;9.244;2024-01-30T03:05:25;0.10;99.90
3940;DHT22;1984;48.312;9.244;2024-01-30T03:07:51;0.10;99.90
3940;DHT22;1984;48.312;9.244;2024-01-30T03:10:16;0.10;99.90
3940;DHT22;1984;48.312;9.244;2024-01-30T03:12:42;0.10;99.90
3940;DHT22;1984;48.312;9.244;2024-01-30T03:15:08;0.00;99.90
3940;DHT22;1984;48.312;9.244;2024-01-30T03:17:35;0.00;99.90
3940;DHT22;1984;48.312;9.244;2024-01-30T03:20:02;0.00;99.90
3940;DHT22;1984;48.312;9.244;2024-01-30T03:22:29;0.00;99.90
3940;DHT22;1984;48.312;9.244;2024-01-30T03:24:54;-0.10;99.90
3940;DHT22;1984;48.312;9.244;2024-01-30T03:27:20;-0.10;99.90
3940;DHT22;1984;48.312;9.244;2024-01-30T03:29:45;-0.10;99.90
3940;DHT22;1984;48.312;9.244;2024-01-30T03:32:11;-0.10;99.90
3940;DHT22;1984;48.312;9.244;2024-01-30T03:34:36;-0.10;99.90
3940;DHT22;1984;48.312;9.244;2024-01-30T03:37:02;-0.10;99.90
3940;DHT22;1984;48.312;9.244;2024-01-30T03:39:28;-0.10;99.90
3940;DHT22;1984;48.312;9.244;2024-01-30T03:41:53;-0.10;99.90
3940;DHT22;1984;48.312;9.244;2024-01-30T03:44:19;-0.10;99.90
3940;DHT22;1984;48.312;9.244;2024-01-30T03:46:44;-0.10;99.90
3940;DHT22;1984;48.312;9.244;2024-01-30T03:49:10;-0.10;99.90
3940;DHT22;1984;48.312;9.244;2024-01-30T03:51:35;-0.10;99.90
3940;DHT22;1984;48.312;9.244;2024-01-30T03:54:01;-0.10;99.90
3940;DHT22;1984;48.312;9.244;2024-01-30T03:56:26;-0.10;99.90
3940;DHT22;1984;48.312;9.244;2024-01-30T03:58:52;-0.10;99.90
3940;DHT22;1984;48.312;9.244;2024-01-30T04:01:17;-0.20;99.90
3940;DHT22;1984;48.312;9.244;2024-01-30T04:03:43;-0.20;99.90
3940;DHT22;1984;48.312;9.244;2024-01-30T04:06:09;-0.20;99.90
3940;DHT22;1984;48.312;9.244;2024-01-30T04:08:36;-0.20;99.90
3940;DHT22;1984;48.312;9.244;2024-01-30T04:11:05;-0.20;99.90
3940;DHT22;1984;48.312;9.244;2024-01-30T04:13:32;-0.20;99.90
3940;DHT22;1984;48.312;9.244;2024-01-30T04:15:59;-0.20;99.90
3940;DHT22;1984;48.312;9.244;2024-01-30T04:18:27;-0.20;99.90
3940;DHT22;1984;48.312;9.244;2024-01-30T04:20:52;-0.20;99.90
3940;DHT22;1984;48.312;9.244;2024-01-30T04:23:18;-0.20;99.90
3940;DHT22;1984;48.312;9.244;2024-01-30T04:25:43;-0.20;99.90
3940;DHT22;1984;48.312;9.244;2024-01-30T04:28:09;-0.20;99.90
3940;DHT22;1984;48.312;9.244;2024-01-30T04:30:37;-0.20;99.90
3940;DHT22;1984;48.312;9.244;2024-01-30T04:33:03;-0.20;99.90
3940;DHT22;1984;48.312;9.244;2024-01-30T04:35:29;-0.20;99.90
3940;DHT22;1984;48.312;9.244;2024-01-30T04:37:54;-0.30;99.90
3940;DHT22;1984;48.312;9.244;2024-01-30T04:40:20;-0.30;99.90
3940;DHT22;1984;48.312;9.244;2024-01-30T04:42:46;-0.30;99.90
3940;DHT22;1984;48.312;9.244;2024-01-30T04:45:12;-0.30;99.90
3940;DHT22;1984;48.312;9.244;2024-01-30T04:47:38;-0.30;99.90
3940;DHT22;1984;48.312;9.244;2024-01-30T04:50:06;-0.30;99.90
3940;DHT22;1984;48.312;9.244;2024-01-30T04:52:31;-0.40;99.90
3940;DHT22;1984;48.312;9.244;2024-01-30T04:54:57;-0.40;99.90
3940;DHT22;1984;48.312;9.244;2024-01-30T04:57:23;-0.30;99.90
3940;DHT22;1984;48.312;9.244;2024-01-30T04:59:48;-0.40;99.90
3940;DHT22;1984;48.312;9.244;2024-01-30T05:02:14;-0.40;99.90
3940;DHT22;1984;48.312;9.244;2024-01-30T05:04:41;-0.40;99.90
3940;DHT22;1984;48.312;9.244;2024-01-30T05:07:06;-0.50;99.90
3940;DHT22;1984;48.312;9.244;2024-01-30T05:09:32;-0.50;99.90
3940;DHT22;1984;48.312;9.244;2024-01-30T05:11:57;-0.50;99.90
3940;DHT22;1984;48.312;9.244;2024-01-30T05:14:23;-0.50;99.90
3940;DHT22;1984;48.312;9.244;2024-01-30T05:16:49;-0.50;99.90
3940;DHT22;1984;48.312;9.244;2024-01-30T05:19:14;-0.60;99.90
3940;DHT22;1984;48.312;9.244;2024-01-30T05:21:40;-0.60;99.90
3940;DHT22;1984;48.312;9.244;2024-01-30T05:24:07;-0.60;99.90
3940;DHT22;1984;48.312;9.244;2024-01-30T05:26:35;-0.60;99.90
3940;DHT22;1984;48.312;9.244;2024-01-30T05:29:02;-0.60;99.90
3940;DHT22;1984;48.312;9.244;2024-01-30T05:31:27;-0.50;99.90
3940;DHT22;1984;48.312;9.244;2024-01-30T05:33:54;-0.50;99.90
3940;DHT22;1984;48.312;9.244;2024-01-30T05:36:19;-0.50;99.90
3940;DHT22;1984;48.312;9.244;2024-01-30T05:38:46;-0.40;99.90
3940;DHT22;1984;48.312;9.244;2024-01-30T05:41:11;-0.40;99.90
3940;DHT22;1984;48.312;9.244;2024-01-30T05:43:37;-0.30;99.90
3940;DHT22;1984;48.312;9.244;2024-01-30T05:46:02;-0.30;99.90
3940;DHT22;1984;48.312;9.244;2024-01-30T05:48:28;-0.30;99.90
3940;DHT22;1984;48.312;9.244;2024-01-30T05:50:54;-0.40;99.90
3940;DHT22;1984;48.312;9.244;2024-01-30T05:53:20;-0.40;99.90
3940;DHT22;1984;48.312;9.244;2024-01-30T05:55:45;-0.40;99.90
3940;DHT22;1984;48.312;9.244;2024-01-30T05:58:11;-0.40;99.90
3940;DHT22;1984;48.312;9.244;2024-01-30T06:00:36;-0.40;99.90
3940;DHT22;1984;48.312;9.244;2024-01-30T06:03:02;-0.40;99.90
3940;DHT22;1984;48.312;9.244;2024-01-30T06:05:28;-0.40;99.90
3940;DHT22;1984;48.312;9.244;2024-01-30T06:07:53;-0.40;99.90
3940;DHT22;1984;48.312;9.244;2024-01-30T06:10:19;-0.40;99.90
3940;DHT22;1984;48.312;9.244;2024-01-30T06:12:44;-0.40;99.90
3940;DHT22;1984;48.312;9.244;2024-01-30T06:15:10;-0.40;99.90
3940;DHT22;1984;48.312;9.244;2024-01-30T06:17:37;-0.40;99.90
3940;DHT22;1984;48.312;9.244;2024-01-30T06:20:03;-0.40;99.90
3940;DHT22;1984;48.312;9.244;2024-01-30T06:22:29;-0.40;99.90
3940;DHT22;1984;48.312;9.244;2024-01-30T06:24:54;-0.30;99.90
3940;DHT22;1984;48.312;9.244;2024-01-30T06:27:20;-0.30;99.90
3940;DHT22;1984;48.312;9.244;2024-01-30T06:29:45;-0.30;99.90
3940;DHT22;1984;48.312;9.244;2024-01-30T06:32:11;-0.30;99.90
3940;DHT22;1984;48.312;9.244;2024-01-30T06:34:37;-0.30;99.90
3940;DHT22;1984;48.312;9.244;2024-01-30T06:37:04;-0.20;99.90
3940;DHT22;1984;48.312;9.244;2024-01-30T06:39:29;-0.10;99.90
3940;DHT22;1984;48.312;9.244;2024-01-30T06:41:55;-0.10;99.90
3940;DHT22;1984;48.312;9.244;2024-01-30T06:44:20;0.00;99.90
3940;DHT22;1984;48.312;9.244;2024-01-30T06:46:46;0.00;99.90
3940;DHT22;1984;48.312;9.244;2024-01-30T06:49:12;0.00;99.90
3940;DHT22;1984;48.312;9.244;2024-01-30T06:51:37;0.10;99.90
3940;DHT22;1984;48.312;9.244;2024-01-30T06:54:03;0.10;99.90
3940;DHT22;1984;48.312;9.244;2024-01-30T06:56:30;0.10;99.90
3940;DHT22;1984;48.312;9.244;2024-01-30T06:58:55;0.10;99.90
3940;DHT22;1984;48.312;9.244;2024-01-30T07:01:21;0.20;99.90
3940;DHT22;1984;48.312;9.244;2024-01-30T07:03:52;0.20;99.90
3940;DHT22;1984;48.312;9.244;2024-01-30T07:06:18;0.20;99.90
3940;DHT22;1984;48.312;9.244;2024-01-30T07:08:43;0.10;99.90
3940;DHT22;1984;48.312;9.244;2024-01-30T07:11:08;0.10;99.90
3940;DHT22;1984;48.312;9.244;2024-01-30T07:13:34;0.10;99.90
3940;DHT22;1984;48.312;9.244;2024-01-30T07:16:00;0.00;99.90
3940;DHT22;1984;48.312;9.244;2024-01-30T07:18:26;0.10;99.90
3940;DHT22;1984;48.312;9.244;2024-01-30T07:20:51;0.10;99.90
3940;DHT22;1984;48.312;9.244;2024-01-30T07:23:17;0.20;99.90
3940;DHT22;1984;48.312;9.244;2024-01-30T07:25:46;0.30;99.90
3940;DHT22;1984;48.312;9.244;2024-01-30T07:28:14;0.30;99.90
3940;DHT22;1984;48.312;9.244;2024-01-30T07:30:42;0.40;99.90
3940;DHT22;1984;48.312;9.244;2024-01-30T07:33:08;0.50;99.90
3940;DHT22;1984;48.312;9.244;2024-01-30T07:35:34;0.60;99.90
3940;DHT22;1984;48.312;9.244;2024-01-30T07:38:00;0.70;99.90
3940;DHT22;1984;48.312;9.244;2024-01-30T07:40:25;1.00;99.90
3940;DHT22;1984;48.312;9.244;2024-01-30T07:42:52;1.60;99.90
3940;DHT22;1984;48.312;9.244;2024-01-30T07:45:18;2.30;99.90
3940;DHT22;1984;48.312;9.244;2024-01-30T07:47:51;3.20;99.90
3940;DHT22;1984;48.312;9.244;2024-01-30T07:50:17;3.80;99.90
3940;DHT22;1984;48.312;9.244;2024-01-30T07:52:43;4.20;99.90
3940;DHT22;1984;48.312;9.244;2024-01-30T07:55:08;4.60;99.90
3940;DHT22;1984;48.312;9.244;2024-01-30T07:57:34;4.90;99.90
3940;DHT22;1984;48.312;9.244;2024-01-30T08:00:03;5.20;99.90
3940;DHT22;1984;48.312;9.244;2024-01-30T08:02:29;5.40;99.90
3940;DHT22;1984;48.312;9.244;2024-01-30T08:04:54;5.40;99.90
3940;DHT22;1984;48.312;9.244;2024-01-30T08:07:20;5.30;99.90
3940;DHT22;1984;48.312;9.244;2024-01-30T08:09:47;5.30;99.90
3940;DHT22;1984;48.312;9.244;2024-01-30T08:12:13;5.60;99.90
3940;DHT22;1984;48.312;9.244;2024-01-30T08:14:39;5.90;99.90
3940;DHT22;1984;48.312;9.244;2024-01-30T08:17:05;6.10;99.90
3940;DHT22;1984;48.312;9.244;2024-01-30T08:19:33;6.00;99.90
3940;DHT22;1984;48.312;9.244;2024-01-30T08:21:58;6.00;99.90
3940;DHT22;1984;48.312;9.244;2024-01-30T08:24:24;6.30;99.90
3940;DHT22;1984;48.312;9.244;2024-01-30T08:26:49;6.70;99.90
3940;DHT22;1984;48.312;9.244;2024-01-30T08:29:15;7.20;99.90
3940;DHT22;1984;48.312;9.244;2024-01-30T08:31:40;7.70;99.90
3940;DHT22;1984;48.312;9.244;2024-01-30T08:34:06;8.10;99.90
3940;DHT22;1984;48.312;9.244;2024-01-30T08:36:32;8.20;99.90
3940;DHT22;1984;48.312;9.244;2024-01-30T08:38:57;8.10;99.90
3940;DHT22;1984;48.312;9.244;2024-01-30T08:41:23;8.10;99.90
3940;DHT22;1984;48.312;9.244;2024-01-30T08:43:49;8.30;99.90
3940;DHT22;1984;48.312;9.244;2024-01-30T08:46:18;8.70;99.90
3940;DHT22;1984;48.312;9.244;2024-01-30T08:48:43;9.20;99.90
3940;DHT22;1984;48.312;9.244;2024-01-30T08:51:09;9.70;99.90
3940;DHT22;1984;48.312;9.244;2024-01-30T08:53:35;10.10;99.90
3940;DHT22;1984;48.312;9.244;2024-01-30T08:56:02;10.50;99.90
3940;DHT22;1984;48.312;9.244;2024-01-30T08:58:28;11.20;99.90
3940;DHT22;1984;48.312;9.244;2024-01-30T09:00:53;12.10;99.90
3940;DHT22;1984;48.312;9.244;2024-01-30T09:03:19;12.80;99.90
3940;DHT22;1984;48.312;9.244;2024-01-30T09:05:44;13.20;99.90
3940;DHT22;1984;48.312;9.244;2024-01-30T09:08:10;13.30;99.90
3940;DHT22;1984;48.312;9.244;2024-01-30T09:10:35;13.40;99.90
3940;DHT22;1984;48.312;9.244;2024-01-30T09:13:01;13.20;99.90
3940;DHT22;1984;48.312;9.244;2024-01-30T09:15:27;13.10;99.90
3940;DHT22;1984;48.312;9.244;2024-01-30T09:17:52;12.80;99.90
3940;DHT22;1984;48.312;9.244;2024-01-30T09:20:18;12.50;99.90
3940;DHT22;1984;48.312;9.244;2024-01-30T09:22:45;12.40;99.90
3940;DHT22;1984;48.312;9.244;2024-01-30T09:25:11;12.60;99.90
3940;DHT22;1984;48.312;9.244;2024-01-30T09:27:36;12.70;99.90
3940;DHT22;1984;48.312;9.244;2024-01-30T09:30:02;13.10;99.90
3940;DHT22;1984;48.312;9.244;2024-01-30T09:32:28;13.50;99.90
3940;DHT22;1984;48.312;9.244;2024-01-30T09:34:54;13.80;99.90
3940;DHT22;1984;48.312;9.244;2024-01-30T09:37:19;14.10;99.80
3940;DHT22;1984;48.312;9.244;2024-01-30T09:39:45;14.20;98.50
3940;DHT22;1984;48.312;9.244;2024-01-30T09:42:35;14.10;98.80
3940;DHT22;1984;48.312;9.244;2024-01-30T09:45:03;14.00;98.90
3940;DHT22;1984;48.312;9.244;2024-01-30T09:47:40;13.70;99.20
3940;DHT22;1984;48.312;9.244;2024-01-30T09:50:06;13.40;99.90
3940;DHT22;1984;48.312;9.244;2024-01-30T09:52:33;13.00;99.90
3940;DHT22;1984;48.312;9.244;2024-01-30T09:54:59;12.50;99.90
3940;DHT22;1984;48.312;9.244;2024-01-30T09:57:25;12.10;99.90
3940;DHT22;1984;48.312;9.244;2024-01-30T09:59:51;11.90;99.90
3940;DHT22;1984;48.312;9.244;2024-01-30T10:02:19;11.80;99.90
3940;DHT22;1984;48.312;9.244;2024-01-30T10:04:48;11.90;99.90
3940;DHT22;1984;48.312;9.244;2024-01-30T10:07:14;12.20;99.90
3940;DHT22;1984;48.312;9.244;2024-01-30T10:09:40;12.50;99.90
3940;DHT22;1984;48.312;9.244;2024-01-30T10:12:06;12.80;99.90
3940;DHT22;1984;48.312;9.244;2024-01-30T10:14:32;12.90;99.90
3940;DHT22;1984;48.312;9.244;2024-01-30T10:16:58;13.30;99.90
3940;DHT22;1984;48.312;9.244;2024-01-30T10:19:24;13.70;99.90
3940;DHT22;1984;48.312;9.244;2024-01-30T10:21:50;13.70;99.90
3940;DHT22;1984;48.312;9.244;2024-01-30T10:24:15;13.40;99.90
3940;DHT22;1984;48.312;9.244;2024-01-30T10:26:44;13.30;99.90
3940;DHT22;1984;48.312;9.244;2024-01-30T10:29:09;13.10;99.90
3940;DHT22;1984;48.312;9.244;2024-01-30T10:31:35;12.90;99.90
3940;DHT22;1984;48.312;9.244;2024-01-30T10:34:00;12.80;99.90
3940;DHT22;1984;48.312;9.244;2024-01-30T10:36:28;12.80;99.90
3940;DHT22;1984;48.312;9.244;2024-01-30T10:38:59;12.80;99.90
3940;DHT22;1984;48.312;9.244;2024-01-30T10:41:31;12.70;99.90
3940;DHT22;1984;48.312;9.244;2024-01-30T10:44:09;12.70;99.90
3940;DHT22;1984;48.312;9.244;2024-01-30T10:46:38;12.60;99.90
3940;DHT22;1984;48.312;9.244;2024-01-30T10:49:04;12.40;99.90
3940;DHT22;1984;48.312;9.244;2024-01-30T10:51:31;12.20;99.90
3940;DHT22;1984;48.312;9.244;2024-01-30T10:53:57;12.20;99.90
3940;DHT22;1984;48.312;9.244;2024-01-30T10:56:24;12.10;99.90
3940;DHT22;1984;48.312;9.244;2024-01-30T10:58:53;12.10;99.90
3940;DHT22;1984;48.312;9.244;2024-01-30T11:01:20;12.10;99.90
3940;DHT22;1984;48.312;9.244;2024-01-30T11:03:51;11.90;99.90
3940;DHT22;1984;48.312;9.244;2024-01-30T11:06:17;11.90;99.90
3940;DHT22;1984;48.312;9.244;2024-01-30T11:08:46;12.00;99.90
3940;DHT22;1984;48.312;9.244;2024-01-30T11:11:12;12.10;99.90
3940;DHT22;1984;48.312;9.244;2024-01-30T11:13:37;12.20;99.90
3940;DHT22;1984;48.312;9.244;2024-01-30T11:16:04;12.30;99.90
3940;DHT22;1984;48.312;9.244;2024-01-30T11:18:31;12.30;99.10
3940;DHT22;1984;48.312;9.244;2024-01-30T11:21:00;12.30;99.90
3940;DHT22;1984;48.312;9.244;2024-01-30T11:23:29;12.30;99.90
3940;DHT22;1984;48.312;9.244;2024-01-30T11:25:55;12.30;99.90
3940;DHT22;1984;48.312;9.244;2024-01-30T11:28:21;12.30;99.90
3940;DHT22;1984;48.312;9.244;2024-01-30T11:30:47;12.40;99.90
3940;DHT22;1984;48.312;9.244;2024-01-30T11:33:27;12.50;99.90
3940;DHT22;1984;48.312;9.244;2024-01-30T11:35:53;12.50;99.50
3940;DHT22;1984;48.312;9.244;2024-01-30T11:38:18;12.50;99.30
3940;DHT22;1984;48.312;9.244;2024-01-30T11:40:44;12.50;99.00
3940;DHT22;1984;48.312;9.244;2024-01-30T11:43:11;12.60;99.30
3940;DHT22;1984;48.312;9.244;2024-01-30T11:45:37;12.60;98.40
3940;DHT22;1984;48.312;9.244;2024-01-30T11:48:03;12.60;98.60
3940;DHT22;1984;48.312;9.244;2024-01-30T11:50:35;12.60;99.20
3940;DHT22;1984;48.312;9.244;2024-01-30T11:53:04;12.60;99.30
3940;DHT22;1984;48.312;9.244;2024-01-30T11:55:30;12.50;99.10
3940;DHT22;1984;48.312;9.244;2024-01-30T11:57:57;12.50;99.50
3940;DHT22;1984;48.312;9.244;2024-01-30T12:00:23;12.30;99.30
3940;DHT22;1984;48.312;9.244;2024-01-30T12:02:53;12.20;99.40
3940;DHT22;1984;48.312;9.244;2024-01-30T12:05:22;12.20;99.70
3940;DHT22;1984;48.312;9.244;2024-01-30T12:07:48;12.20;99.80
3940;DHT22;1984;48.312;9.244;2024-01-30T12:10:14;12.10;99.50
3940;DHT22;1984;48.312;9.244;2024-01-30T12:12:42;12.10;99.60
3940;DHT22;1984;48.312;9.244;2024-01-30T12:15:08;12.00;99.60
3940;DHT22;1984;48.312;9.244;2024-01-30T12:17:34;11.90;99.40
3940;DHT22;1984;48.312;9.244;2024-01-30T12:20:26;11.80;99.60
3940;DHT22;1984;48.312;9.244;2024-01-30T12:22:52;11.80;99.30
3940;DHT22;1984;48.312;9.244;2024-01-30T12:25:20;11.90;99.60
3940;DHT22;1984;48.312;9.244;2024-01-30T12:27:47;11.80;99.90
3940;DHT22;1984;48.312;9.244;2024-01-30T12:30:17;11.80;99.80
3940;DHT22;1984;48.312;9.244;2024-01-30T12:32:48;11.90;99.90
3940;DHT22;1984;48.312;9.244;2024-01-30T12:35:16;11.90;99.90
3940;DHT22;1984;48.312;9.244;2024-01-30T12:37:43;12.00;99.90
3940;DHT22;1984;48.312;9.244;2024-01-30T12:40:10;12.00;99.30
3940;DHT22;1984;48.312;9.244;2024-01-30T12:42:38;12.00;99.20
3940;DHT22;1984;48.312;9.244;2024-01-30T12:45:05;11.90;99.50
3940;DHT22;1984;48.312;9.244;2024-01-30T12:47:31;12.00;99.70
3940;DHT22;1984;48.312;9.244;2024-01-30T12:49:57;12.10;99.90
3940;DHT22;1984;48.312;9.244;2024-01-30T12:52:22;12.10;99.50
3940;DHT22;1984;48.312;9.244;2024-01-30T12:54:49;12.10;99.50
3940;DHT22;1984;48.312;9.244;2024-01-30T12:57:15;12.10;99.60
3940;DHT22;1984;48.312;9.244;2024-01-30T12:59:42;12.10;99.90
3940;DHT22;1984;48.312;9.244;2024-01-30T13:02:08;12.20;99.30
3940;DHT22;1984;48.312;9.244;2024-01-30T13:04:34;12.10;99.70
3940;DHT22;1984;48.312;9.244;2024-01-30T13:07:00;12.20;99.90
3940;DHT22;1984;48.312;9.244;2024-01-30T13:09:30;12.30;99.90
3940;DHT22;1984;48.312;9.244;2024-01-30T13:11:56;12.40;99.90
3940;DHT22;1984;48.312;9.244;2024-01-30T13:14:21;12.50;99.90
3940;DHT22;1984;48.312;9.244;2024-01-30T13:16:47;12.70;99.90
3940;DHT22;1984;48.312;9.244;2024-01-30T13:19:13;12.70;99.90
3940;DHT22;1984;48.312;9.244;2024-01-30T13:21:38;12.70;99.90
3940;DHT22;1984;48.312;9.244;2024-01-30T13:24:04;12.80;99.90
3940;DHT22;1984;48.312;9.244;2024-01-30T13:26:32;12.80;99.90
3940;DHT22;1984;48.312;9.244;2024-01-30T13:28:58;12.80;99.90
3940;DHT22;1984;48.312;9.244;2024-01-30T13:31:23;12.80;99.90
3940;DHT22;1984;48.312;9.244;2024-01-30T13:33:49;12.80;99.90
3940;DHT22;1984;48.312;9.244;2024-01-30T13:36:15;12.70;99.90
3940;DHT22;1984;48.312;9.244;2024-01-30T13:38:40;12.60;99.90
3940;DHT22;1984;48.312;9.244;2024-01-30T13:41:06;12.50;99.90
3940;DHT22;1984;48.312;9.244;2024-01-30T13:43:31;12.40;99.90
3940;DHT22;1984;48.312;9.244;2024-01-30T13:45:58;12.30;99.90
3940;DHT22;1984;48.312;9.244;2024-01-30T13:48:24;12.20;99.90
3940;DHT22;1984;48.312;9.244;2024-01-30T13:50:49;12.20;99.90
3940;DHT22;1984;48.312;9.244;2024-01-30T13:53:15;12.20;99.90
3940;DHT22;1984;48.312;9.244;2024-01-30T13:55:40;12.20;99.90
3940;DHT22;1984;48.312;9.244;2024-01-30T13:58:06;12.20;99.90
3940;DHT22;1984;48.312;9.244;2024-01-30T14:00:33;12.20;99.90
3940;DHT22;1984;48.312;9.244;2024-01-30T14:02:59;12.10;99.90
3940;DHT22;1984;48.312;9.244;2024-01-30T14:05:25;12.00;99.90
3940;DHT22;1984;48.312;9.244;2024-01-30T14:07:54;11.90;99.90
3940;DHT22;1984;48.312;9.244;2024-01-30T14:10:20;11.80;99.90
3940;DHT22;1984;48.312;9.244;2024-01-30T14:12:46;11.90;99.90
3940;DHT22;1984;48.312;9.244;2024-01-30T14:15:13;11.80;99.90
3940;DHT22;1984;48.312;9.244;2024-01-30T14:17:40;11.80;99.90
3940;DHT22;1984;48.312;9.244;2024-01-30T14:20:06;11.70;99.90
3940;DHT22;1984;48.312;9.244;2024-01-30T14:22:34;11.70;99.90
3940;DHT22;1984;48.312;9.244;2024-01-30T14:25:00;11.80;99.90
3940;DHT22;1984;48.312;9.244;2024-01-30T14:27:28;11.70;99.90
3940;DHT22;1984;48.312;9.244;2024-01-30T14:29:53;11.80;99.90
3940;DHT22;1984;48.312;9.244;2024-01-30T14:32:19;11.80;99.90
3940;DHT22;1984;48.312;9.244;2024-01-30T14:34:44;11.70;99.90
3940;DHT22;1984;48.312;9.244;2024-01-30T14:37:10;11.70;99.90
3940;DHT22;1984;48.312;9.244;2024-01-30T14:39:35;11.70;99.90
3940;DHT22;1984;48.312;9.244;2024-01-30T14:42:03;11.60;99.90
3940;DHT22;1984;48.312;9.244;2024-01-30T14:44:29;11.50;99.90
3940;DHT22;1984;48.312;9.244;2024-01-30T14:46:56;11.50;99.90
3940;DHT22;1984;48.312;9.244;2024-01-30T14:49:21;11.40;99.90
3940;DHT22;1984;48.312;9.244;2024-01-30T14:51:47;11.30;99.90
3940;DHT22;1984;48.312;9.244;2024-01-30T14:54:12;11.30;99.90
3940;DHT22;1984;48.312;9.244;2024-01-30T14:56:38;11.20;99.90
3940;DHT22;1984;48.312;9.244;2024-01-30T14:59:03;11.20;99.90
3940;DHT22;1984;48.312;9.244;2024-01-30T15:01:29;11.20;99.90
3940;DHT22;1984;48.312;9.244;2024-01-30T15:03:54;11.20;99.90
3940;DHT22;1984;48.312;9.244;2024-01-30T15:06:21;11.20;99.90
3940;DHT22;1984;48.312;9.244;2024-01-30T15:08:49;11.10;99.90
3940;DHT22;1984;48.312;9.244;2024-01-30T15:11:15;11.10;99.90
3940;DHT22;1984;48.312;9.244;2024-01-30T15:13:40;11.10;99.90
3940;DHT22;1984;48.312;9.244;2024-01-30T15:16:06;11.00;99.90
3940;DHT22;1984;48.312;9.244;2024-01-30T15:18:32;11.00;99.90
3940;DHT22;1984;48.312;9.244;2024-01-30T15:20:58;10.90;99.90
3940;DHT22;1984;48.312;9.244;2024-01-30T15:23:23;10.90;99.90
3940;DHT22;1984;48.312;9.244;2024-01-30T15:25:49;10.90;99.90
3940;DHT22;1984;48.312;9.244;2024-01-30T15:28:14;10.80;99.90
3940;DHT22;1984;48.312;9.244;2024-01-30T15:30:41;10.70;99.90
3940;DHT22;1984;48.312;9.244;2024-01-30T15:33:10;10.70;99.90
3940;DHT22;1984;48.312;9.244;2024-01-30T15:35:35;10.60;99.90
3940;DHT22;1984;48.312;9.244;2024-01-30T15:38:03;10.50;99.90
3940;DHT22;1984;48.312;9.244;2024-01-30T15:40:29;10.40;99.90
3940;DHT22;1984;48.312;9.244;2024-01-30T15:42:54;10.40;99.90
3940;DHT22;1984;48.312;9.244;2024-01-30T15:45:20;10.30;99.90
3940;DHT22;1984;48.312;9.244;2024-01-30T15:47:45;10.30;99.90
3940;DHT22;1984;48.312;9.244;2024-01-30T15:50:11;10.20;99.90
3940;DHT22;1984;48.312;9.244;2024-01-30T15:52:36;10.10;99.90
3940;DHT22;1984;48.312;9.244;2024-01-30T15:55:02;10.10;99.90
3940;DHT22;1984;48.312;9.244;2024-01-30T15:57:28;10.00;99.90
3940;DHT22;1984;48.312;9.244;2024-01-30T15:59:53;9.90;99.90